sensor_id;sensor_type;location;lat;lon;timestamp;temperature;humidity
19483;DHT22;9882;51.166;6.992;2023-01-05T00:01:38;11.50;99.90
19483;DHT22;9882;51.166;6.992;2023-01-05T00:04:06;11.40;99.90
19483;DHT22;9882;51.166;6.992;2023-01-05T00:06:35;11.50;99.90
19483;DHT22;9882;51.166;6.992;2023-01-05T00:09:07;11.50;99.90
19483;DHT22;9882;51.166;6.992;2023-01-05T00:11:38;11.50;99.90
19483;DHT22;9882;51.166;6.992;2023-01-05T00:14:26;11.50;99.90
19483;DHT22;9882;51.166;6.992;2023-01-05T00:17:15;11.40;99.90
19483;DHT22;9882;51.166;6.992;2023-01-05T00:20:02;11.40;99.90
19483;DHT22;9882;51.166;6.992;2023-01-05T00:22:49;11.50;99.90
19483;DHT22;9882;51.166;6.992;2023-01-05T00:25:21;11.40;99.90
19483;DHT22;9882;51.166;6.992;2023-01-05T00:27:50;11.50;99.90
19483;DHT22;9882;51.166;6.992;2023-01-05T00:30:22;11.40;99.90
19483;DHT22;9882;51.166;6.992;2023-01-05T00:32:51;11.30;99.90
19483;DHT22;9882;51.166;6.992;2023-01-05T00:35:20;11.30;99.90
19483;DHT22;9882;51.166;6.992;2023-01-05T00:37:50;11.30;99.90
19483;DHT22;9882;51.166;6.992;2023-01-05T00:40:21;11.30;99.90
19483;DHT22;9882;51.166;6.992;2023-01-05T00:42:50;11.30;99.90
19483;DHT22;9882;51.166;6.992;2023-01-05T00:45:19;11.20;99.90
19483;DHT22;9882;51.166;6.992;2023-01-05T00:47:48;11.30;99.90
19483;DHT22;9882;51.166;6.992;2023-01-05T00:50:19;11.30;99.90
19483;DHT22;9882;51.166;6.992;2023-01-05T00:52:49;11.30;99.90
19483;DHT22;9882;51.166;6.992;2023-01-05T00:55:18;11.30;99.90
19483;DHT22;9882;51.166;6.992;2023-01-05T00:57:48;11.30;99.90
19483;DHT22;9882;51.166;6.992;2023-01-05T01:00:18;11.30;99.90
19483;DHT22;9882;51.166;6.992;2023-01-05T01:02:50;11.30;99.90
19483;DHT22;9882;51.166;6.992;2023-01-05T01:05:19;11.30;99.90
19483;DHT22;9882;51.166;6.992;2023-01-05T01:07:48;11.30;99.90
19483;DHT22;9882;51.166;6.992;2023-01-05T01:10:17;11.30;99.90
19483;DHT22;9882;51.166;6.992;2023-01-05T01:12:48;11.30;99.90
19483;DHT22;9882;51.166;6.992;2023-01-05T01:15:17;11.30;99.90
19483;DHT22;9882;51.166;6.992;2023-01-05T01:17:46;11.30;99.90
19483;DHT22;9882;51.166;6.992;2023-01-05T01:20:15;11.30;99.90
19483;DHT22;9882;51.166;6.992;2023-01-05T01:22:45;11.30;99.90
19483;DHT22;9882;51.166;6.992;2023-01-05T01:25:14;11.30;99.90
19483;DHT22;9882;51.166;6.992;2023-01-05T01:27:43;11.30;99.90
19483;DHT22;9882;51.166;6.992;2023-01-05T01:30:14;11.30;99.90
19483;DHT22;9882;51.166;6.992;2023-01-05T01:32:43;11.20;99.90
19483;DHT22;9882;51.166;6.992;2023-01-05T01:35:12;11.20;99.90
19483;DHT22;9882;51.166;6.992;2023-01-05T01:37:42;11.20;99.90
19483;DHT22;9882;51.166;6.992;2023-01-05T01:40:11;11.30;99.90
19483;DHT22;9882;51.166;6.992;2023-01-05T01:42:41;11.30;99.90
19483;DHT22;9882;51.166;6.992;2023-01-05T01:45:17;11.20;99.90
19483;DHT22;9882;51.166;6.992;2023-01-05T01:47:51;11.20;99.90
19483;DHT22;9882;51.166;6.992;2023-01-05T01:50:26;11.20;99.90
19483;DHT22;9882;51.166;6.992;2023-01-05T01:52:59;11.20;99.90
19483;DHT22;9882;51.166;6.992;2023-01-05T01:55:30;11.10;99.90
19483;DHT22;9882;51.166;6.992;2023-01-05T01:58:02;11.20;99.90
19483;DHT22;9882;51.166;6.992;2023-01-05T02:00:35;11.10;99.90
19483;DHT22;9882;51.166;6.992;2023-01-05T02:03:04;11.10;99.90
19483;DHT22;9882;51.166;6.992;2023-01-05T02:05:34;11.10;99.90
19483;DHT22;9882;51.166;6.992;2023-01-05T02:08:09;11.10;99.90
19483;DHT22;9882;51.166;6.992;2023-01-05T02:10:54;11.10;99.90
19483;DHT22;9882;51.166;6.992;2023-01-05T02:13:39;11.10;99.90
19483;DHT22;9882;51.166;6.992;2023-01-05T02:16:20;11.10;99.90
19483;DHT22;9882;51.166;6.992;2023-01-05T02:19:14;11.10;99.90
19483;DHT22;9882;51.166;6.992;2023-01-05T02:21:54;11.00;99.90
19483;DHT22;9882;51.166;6.992;2023-01-05T02:24:53;11.00;99.90
19483;DHT22;9882;51.166;6.992;2023-01-05T02:27:46;11.00;99.90
19483;DHT22;9882;51.166;6.992;2023-01-05T02:33:29;10.90;99.90
19483;DHT22;9882;51.166;6.992;2023-01-05T02:36:03;10.90;99.90
19483;DHT22;9882;51.166;6.992;2023-01-05T02:38:38;10.90;99.90
19483;DHT22;9882;51.166;6.992;2023-01-05T02:41:14;10.90;99.90
19483;DHT22;9882;51.166;6.992;2023-01-05T02:43:46;10.90;99.90
19483;DHT22;9882;51.166;6.992;2023-01-05T02:46:15;10.90;99.90
19483;DHT22;9882;51.166;6.992;2023-01-05T02:48:47;10.90;99.90
19483;DHT22;9882;51.166;6.992;2023-01-05T02:51:21;10.90;99.90
19483;DHT22;9882;51.166;6.992;2023-01-05T02:53:55;10.90;99.90
19483;DHT22;9882;51.166;6.992;2023-01-05T02:56:31;10.90;99.90
19483;DHT22;9882;51.166;6.992;2023-01-05T02:59:05;10.90;99.90
19483;DHT22;9882;51.166;6.992;2023-01-05T03:01:37;10.90;99.90
19483;DHT22;9882;51.166;6.992;2023-01-05T03:04:15;10.90;99.90
19483;DHT22;9882;51.166;6.992;2023-01-05T03:06:49;10.80;99.90
19483;DHT22;9882;51.166;6.992;2023-01-05T03:09:26;10.80;99.90
19483;DHT22;9882;51.166;6.992;2023-01-05T03:12:02;10.90;99.90
19483;DHT22;9882;51.166;6.992;2023-01-05T03:14:55;10.80;99.90
19483;DHT22;9882;51.166;6.992;2023-01-05T03:17:29;10.80;99.90
19483;DHT22;9882;51.166;6.992;2023-01-05T03:20:02;10.90;99.90
19483;DHT22;9882;51.166;6.992;2023-01-05T03:22:31;10.90;99.90
19483;DHT22;9882;51.166;6.992;2023-01-05T03:25:21;10.90;99.90
19483;DHT22;9882;51.166;6.992;2023-01-05T03:28:13;10.90;99.90
19483;DHT22;9882;51.166;6.992;2023-01-05T03:31:03;10.80;99.90
19483;DHT22;9882;51.166;6.992;2023-01-05T03:33:56;10.80;99.90
19483;DHT22;9882;51.166;6.992;2023-01-05T03:36:49;10.80;99.90
19483;DHT22;9882;51.166;6.992;2023-01-05T03:39:20;10.80;99.90
19483;DHT22;9882;51.166;6.992;2023-01-05T03:41:55;10.80;99.90
19483;DHT22;9882;51.166;6.992;2023-01-05T03:44:25;10.80;99.90
19483;DHT22;9882;51.166;6.992;2023-01-05T03:46:55;10.80;99.90
19483;DHT22;9882;51.166;6.992;2023-01-05T03:49:24;10.70;99.90
19483;DHT22;9882;51.166;6.992;2023-01-05T03:51:55;10.50;99.90
19483;DHT22;9882;51.166;6.992;2023-01-05T03:54:24;10.40;99.90
19483;DHT22;9882;51.166;6.992;2023-01-05T03:56:53;10.30;99.90
19483;DHT22;9882;51.166;6.992;2023-01-05T03:59:22;10.30;99.90
19483;DHT22;9882;51.166;6.992;2023-01-05T04:01:51;10.20;99.90
19483;DHT22;9882;51.166;6.992;2023-01-05T04:04:23;10.20;99.90
19483;DHT22;9882;51.166;6.992;2023-01-05T04:06:52;10.30;99.90
19483;DHT22;9882;51.166;6.992;2023-01-05T04:09:25;10.40;99.90
19483;DHT22;9882;51.166;6.992;2023-01-05T04:11:54;10.30;99.90
19483;DHT22;9882;51.166;6.992;2023-01-05T04:14:23;10.30;99.90
19483;DHT22;9882;51.166;6.992;2023-01-05T04:16:52;10.30;99.90
19483;DHT22;9882;51.166;6.992;2023-01-05T04:19:23;10.30;99.90
19483;DHT22;9882;51.166;6.992;2023-01-05T04:21:54;10.30;99.90
19483;DHT22;9882;51.166;6.992;2023-01-05T04:24:26;10.20;99.90
19483;DHT22;9882;51.166;6.992;2023-01-05T04:26:55;10.20;99.90
19483;DHT22;9882;51.166;6.992;2023-01-05T04:29:26;10.20;99.90
19483;DHT22;9882;51.166;6.992;2023-01-05T04:31:58;10.20;99.90
19483;DHT22;9882;51.166;6.992;2023-01-05T04:34:28;10.10;99.90
19483;DHT22;9882;51.166;6.992;2023-01-05T04:36:59;10.10;99.90
19483;DHT22;9882;51.166;6.992;2023-01-05T04:39:32;10.10;99.90
19483;DHT22;9882;51.166;6.992;2023-01-05T04:42:02;10.10;99.90
19483;DHT22;9882;51.166;6.992;2023-01-05T04:44:33;10.00;99.90
19483;DHT22;9882;51.166;6.992;2023-01-05T04:47:04;10.00;99.90
19483;DHT22;9882;51.166;6.992;2023-01-05T04:49:38;10.00;99.90
19483;DHT22;9882;51.166;6.992;2023-01-05T04:52:09;10.00;99.90
19483;DHT22;9882;51.166;6.992;2023-01-05T04:54:40;10.00;99.90
19483;DHT22;9882;51.166;6.992;2023-01-05T04:57:09;10.00;99.90
19483;DHT22;9882;51.166;6.992;2023-01-05T04:59:39;10.00;99.90
19483;DHT22;9882;51.166;6.992;2023-01-05T05:02:10;9.90;99.90
19483;DHT22;9882;51.166;6.992;2023-01-05T05:04:42;10.00;99.90
19483;DHT22;9882;51.166;6.992;2023-01-05T05:07:13;10.00;99.90
19483;DHT22;9882;51.166;6.992;2023-01-05T05:09:43;9.90;99.90
19483;DHT22;9882;51.166;6.992;2023-01-05T05:12:13;10.00;99.90
19483;DHT22;9882;51.166;6.992;2023-01-05T05:14:42;10.00;99.90
19483;DHT22;9882;51.166;6.992;2023-01-05T05:17:12;10.00;99.90
19483;DHT22;9882;51.166;6.992;2023-01-05T05:19:41;10.00;99.90
19483;DHT22;9882;51.166;6.992;2023-01-05T05:22:10;9.90;99.90
19483;DHT22;9882;51.166;6.992;2023-01-05T05:24:43;9.90;99.90
19483;DHT22;9882;51.166;6.992;2023-01-05T05:27:12;10.00;99.90
19483;DHT22;9882;51.166;6.992;2023-01-05T05:29:41;9.90;99.90
19483;DHT22;9882;51.166;6.992;2023-01-05T05:32:10;9.80;99.90
19483;DHT22;9882;51.166;6.992;2023-01-05T05:34:39;9.90;99.90
19483;DHT22;9882;51.166;6.992;2023-01-05T05:37:08;9.80;99.90
19483;DHT22;9882;51.166;6.992;2023-01-05T05:39:37;9.80;99.90
19483;DHT22;9882;51.166;6.992;2023-01-05T05:42:08;9.80;99.90
19483;DHT22;9882;51.166;6.992;2023-01-05T05:44:37;9.80;99.90
19483;DHT22;9882;51.166;6.992;2023-01-05T05:47:06;9.90;99.90
19483;DHT22;9882;51.166;6.992;2023-01-05T05:49:35;9.80;99.90
19483;DHT22;9882;51.166;6.992;2023-01-05T05:52:05;9.90;99.90
19483;DHT22;9882;51.166;6.992;2023-01-05T05:54:34;9.90;99.90
19483;DHT22;9882;51.166;6.992;2023-01-05T05:57:03;9.80;99.90
19483;DHT22;9882;51.166;6.992;2023-01-05T05:59:34;9.90;99.90
19483;DHT22;9882;51.166;6.992;2023-01-05T06:02:03;9.90;99.90
19483;DHT22;9882;51.166;6.992;2023-01-05T06:04:32;9.90;99.90
19483;DHT22;9882;51.166;6.992;2023-01-05T06:07:01;9.90;99.90
19483;DHT22;9882;51.166;6.992;2023-01-05T06:09:30;10.00;99.90
19483;DHT22;9882;51.166;6.992;2023-01-05T06:11:59;9.90;99.90
19483;DHT22;9882;51.166;6.992;2023-01-05T06:14:28;9.90;99.90
19483;DHT22;9882;51.166;6.992;2023-01-05T06:16:58;9.90;99.90
19483;DHT22;9882;51.166;6.992;2023-01-05T06:19:28;9.90;99.90
19483;DHT22;9882;51.166;6.992;2023-01-05T06:21:57;9.90;99.90
19483;DHT22;9882;51.166;6.992;2023-01-05T06:24:26;9.80;99.90
19483;DHT22;9882;51.166;6.992;2023-01-05T06:26:55;9.70;99.90
19483;DHT22;9882;51.166;6.992;2023-01-05T06:29:24;9.70;99.90
19483;DHT22;9882;51.166;6.992;2023-01-05T06:31:54;9.70;99.90
19483;DHT22;9882;51.166;6.992;2023-01-05T06:34:24;9.70;99.90
19483;DHT22;9882;51.166;6.992;2023-01-05T06:36:53;9.70;99.90
19483;DHT22;9882;51.166;6.992;2023-01-05T06:39:27;9.70;99.90
19483;DHT22;9882;51.166;6.992;2023-01-05T06:41:56;9.80;99.90
19483;DHT22;9882;51.166;6.992;2023-01-05T06:44:25;9.70;99.90
19483;DHT22;9882;51.166;6.992;2023-01-05T06:46:54;9.70;99.90
19483;DHT22;9882;51.166;6.992;2023-01-05T06:49:24;9.70;99.90
19483;DHT22;9882;51.166;6.992;2023-01-05T06:51:54;9.60;99.90
19483;DHT22;9882;51.166;6.992;2023-01-05T06:54:23;9.60;99.90
19483;DHT22;9882;51.166;6.992;2023-01-05T06:56:52;9.70;99.90
19483;DHT22;9882;51.166;6.992;2023-01-05T06:59:21;9.70;99.90
19483;DHT22;9882;51.166;6.992;2023-01-05T07:01:50;9.70;99.90
19483;DHT22;9882;51.166;6.992;2023-01-05T07:04:20;9.70;99.90
19483;DHT22;9882;51.166;6.992;2023-01-05T07:06:51;9.60;99.90
19483;DHT22;9882;51.166;6.992;2023-01-05T07:09:20;9.60;99.90
19483;DHT22;9882;51.166;6.992;2023-01-05T07:11:49;9.60;99.90
19483;DHT22;9882;51.166;6.992;2023-01-05T07:14:18;9.70;99.90
19483;DHT22;9882;51.166;6.992;2023-01-05T07:16:47;9.70;99.90
19483;DHT22;9882;51.166;6.992;2023-01-05T07:19:16;9.70;99.90
19483;DHT22;9882;51.166;6.992;2023-01-05T07:21:45;9.70;99.90
19483;DHT22;9882;51.166;6.992;2023-01-05T07:24:18;9.70;99.90
19483;DHT22;9882;51.166;6.992;2023-01-05T07:26:47;9.70;99.90
19483;DHT22;9882;51.166;6.992;2023-01-05T07:29:16;9.70;99.90
19483;DHT22;9882;51.166;6.992;2023-01-05T07:31:45;9.70;99.90
19483;DHT22;9882;51.166;6.992;2023-01-05T07:34:19;9.70;99.90
19483;DHT22;9882;51.166;6.992;2023-01-05T07:36:48;9.70;99.90
19483;DHT22;9882;51.166;6.992;2023-01-05T07:39:19;9.70;99.90
19483;DHT22;9882;51.166;6.992;2023-01-05T07:41:48;9.70;99.90
19483;DHT22;9882;51.166;6.992;2023-01-05T07:44:17;9.70;99.90
19483;DHT22;9882;51.166;6.992;2023-01-05T07:46:47;9.80;99.90
19483;DHT22;9882;51.166;6.992;2023-01-05T07:49:16;9.80;99.90
19483;DHT22;9882;51.166;6.992;2023-01-05T07:51:48;9.70;99.90
19483;DHT22;9882;51.166;6.992;2023-01-05T07:54:19;9.80;99.90
19483;DHT22;9882;51.166;6.992;2023-01-05T07:56:49;9.80;99.90
19483;DHT22;9882;51.166;6.992;2023-01-05T07:59:19;9.80;99.90
19483;DHT22;9882;51.166;6.992;2023-01-05T08:01:48;9.80;99.90
19483;DHT22;9882;51.166;6.992;2023-01-05T08:04:18;9.80;99.90
19483;DHT22;9882;51.166;6.992;2023-01-05T08:06:47;9.80;99.90
19483;DHT22;9882;51.166;6.992;2023-01-05T08:09:16;9.80;99.90
19483;DHT22;9882;51.166;6.992;2023-01-05T08:12:04;9.90;99.90
19483;DHT22;9882;51.166;6.992;2023-01-05T08:14:34;9.80;99.90
19483;DHT22;9882;51.166;6.992;2023-01-05T08:17:01;9.80;99.90
19483;DHT22;9882;51.166;6.992;2023-01-05T08:19:31;9.90;99.90
19483;DHT22;9882;51.166;6.992;2023-01-05T08:22:00;9.90;99.90
19483;DHT22;9882;51.166;6.992;2023-01-05T08:24:29;9.90;99.90
19483;DHT22;9882;51.166;6.992;2023-01-05T08:26:58;9.90;99.90
19483;DHT22;9882;51.166;6.992;2023-01-05T08:29:28;9.90;99.90
19483;DHT22;9882;51.166;6.992;2023-01-05T08:31:57;9.90;99.90
19483;DHT22;9882;51.166;6.992;2023-01-05T08:34:26;9.90;99.90
19483;DHT22;9882;51.166;6.992;2023-01-05T08:36:59;9.90;99.90
19483;DHT22;9882;51.166;6.992;2023-01-05T08:39:28;9.90;99.90
19483;DHT22;9882;51.166;6.992;2023-01-05T08:41:57;10.00;99.90
19483;DHT22;9882;51.166;6.992;2023-01-05T08:44:30;9.90;99.90
19483;DHT22;9882;51.166;6.992;2023-01-05T08:46:59;10.00;99.90
19483;DHT22;9882;51.166;6.992;2023-01-05T08:49:29;10.00;99.90
19483;DHT22;9882;51.166;6.992;2023-01-05T08:51:58;10.00;99.90
19483;DHT22;9882;51.166;6.992;2023-01-05T08:54:27;10.00;99.90
19483;DHT22;9882;51.166;6.992;2023-01-05T08:56:56;10.10;99.90
19483;DHT22;9882;51.166;6.992;2023-01-05T08:59:25;10.00;99.90
19483;DHT22;9882;51.166;6.992;2023-01-05T09:01:56;10.10;99.90
19483;DHT22;9882;51.166;6.992;2023-01-05T09:04:25;10.10;99.90
19483;DHT22;9882;51.166;6.992;2023-01-05T09:06:55;10.10;99.90
19483;DHT22;9882;51.166;6.992;2023-01-05T09:09:24;10.10;99.90
19483;DHT22;9882;51.166;6.992;2023-01-05T09:11:53;10.10;99.90
19483;DHT22;9882;51.166;6.992;2023-01-05T09:14:22;10.10;99.90
19483;DHT22;9882;51.166;6.992;2023-01-05T09:16:51;10.10;99.90
19483;DHT22;9882;51.166;6.992;2023-01-05T09:19:37;10.10;99.90
19483;DHT22;9882;51.166;6.992;2023-01-05T09:22:06;10.10;99.90
19483;DHT22;9882;51.166;6.992;2023-01-05T09:24:35;10.10;99.90
19483;DHT22;9882;51.166;6.992;2023-01-05T09:27:06;10.20;99.90
19483;DHT22;9882;51.166;6.992;2023-01-05T09:29:35;10.20;99.90
19483;DHT22;9882;51.166;6.992;2023-01-05T09:32:05;10.20;99.90
19483;DHT22;9882;51.166;6.992;2023-01-05T09:34:34;10.30;99.90
19483;DHT22;9882;51.166;6.992;2023-01-05T09:37:04;10.30;99.90
19483;DHT22;9882;51.166;6.992;2023-01-05T09:39:33;10.30;99.90
19483;DHT22;9882;51.166;6.992;2023-01-05T09:42:05;10.30;99.90
19483;DHT22;9882;51.166;6.992;2023-01-05T09:44:40;10.30;99.90
19483;DHT22;9882;51.166;6.992;2023-01-05T09:47:12;10.30;99.90
19483;DHT22;9882;51.166;6.992;2023-01-05T09:49:44;10.20;99.90
19483;DHT22;9882;51.166;6.992;2023-01-05T09:52:17;10.30;99.90
19483;DHT22;9882;51.166;6.992;2023-01-05T09:54:48;10.30;99.90
19483;DHT22;9882;51.166;6.992;2023-01-05T09:57:20;10.30;99.90
19483;DHT22;9882;51.166;6.992;2023-01-05T09:59:51;10.40;99.90
19483;DHT22;9882;51.166;6.992;2023-01-05T10:02:28;10.40;99.90
19483;DHT22;9882;51.166;6.992;2023-01-05T10:05:01;10.40;99.90
19483;DHT22;9882;51.166;6.992;2023-01-05T10:07:41;10.40;99.90
19483;DHT22;9882;51.166;6.992;2023-01-05T10:10:26;10.40;99.90
19483;DHT22;9882;51.166;6.992;2023-01-05T10:12:59;10.40;99.90
19483;DHT22;9882;51.166;6.992;2023-01-05T10:15:39;10.40;99.90
19483;DHT22;9882;51.166;6.992;2023-01-05T10:18:12;10.50;99.90
19483;DHT22;9882;51.166;6.992;2023-01-05T10:20:51;10.50;99.90
19483;DHT22;9882;51.166;6.992;2023-01-05T10:26:18;10.40;99.90
19483;DHT22;9882;51.166;6.992;2023-01-05T10:28:53;10.50;99.90
19483;DHT22;9882;51.166;6.992;2023-01-05T10:31:37;10.50;99.90
19483;DHT22;9882;51.166;6.992;2023-01-05T10:34:20;10.50;99.90
19483;DHT22;9882;51.166;6.992;2023-01-05T10:36:59;10.40;99.90
19483;DHT22;9882;51.166;6.992;2023-01-05T10:39:47;10.50;99.90
19483;DHT22;9882;51.166;6.992;2023-01-05T10:42:43;10.50;99.90
19483;DHT22;9882;51.166;6.992;2023-01-05T10:45:14;10.50;99.90
19483;DHT22;9882;51.166;6.992;2023-01-05T10:47:45;10.60;99.90
19483;DHT22;9882;51.166;6.992;2023-01-05T10:50:34;10.50;99.90
19483;DHT22;9882;51.166;6.992;2023-01-05T10:53:08;10.60;99.90
19483;DHT22;9882;51.166;6.992;2023-01-05T10:55:46;10.70;99.90
19483;DHT22;9882;51.166;6.992;2023-01-05T10:58:24;10.50;99.90
19483;DHT22;9882;51.166;6.992;2023-01-05T11:00:55;10.50;99.90
19483;DHT22;9882;51.166;6.992;2023-01-05T11:03:33;10.60;99.90
19483;DHT22;9882;51.166;6.992;2023-01-05T11:06:25;10.60;99.90
19483;DHT22;9882;51.166;6.992;2023-01-05T11:09:04;10.60;99.90
19483;DHT22;9882;51.166;6.992;2023-01-05T11:11:36;10.60;99.90
19483;DHT22;9882;51.166;6.992;2023-01-05T11:14:05;10.60;99.90
19483;DHT22;9882;51.166;6.992;2023-01-05T11:16:46;10.70;99.90
19483;DHT22;9882;51.166;6.992;2023-01-05T11:19:18;10.70;99.90
19483;DHT22;9882;51.166;6.992;2023-01-05T11:21:49;10.70;99.90
19483;DHT22;9882;51.166;6.992;2023-01-05T11:24:28;10.70;99.90
19483;DHT22;9882;51.166;6.992;2023-01-05T11:26:59;10.70;99.90
19483;DHT22;9882;51.166;6.992;2023-01-05T11:29:29;10.80;99.90
19483;DHT22;9882;51.166;6.992;2023-01-05T11:32:00;10.80;99.90
19483;DHT22;9882;51.166;6.992;2023-01-05T11:34:36;10.80;99.90
19483;DHT22;9882;51.166;6.992;2023-01-05T11:37:21;10.80;99.90
19483;DHT22;9882;51.166;6.992;2023-01-05T11:39:53;10.80;99.90
19483;DHT22;9882;51.166;6.992;2023-01-05T11:42:32;10.90;99.90
19483;DHT22;9882;51.166;6.992;2023-01-05T11:45:05;10.90;99.90
19483;DHT22;9882;51.166;6.992;2023-01-05T11:47:37;10.90;99.90
19483;DHT22;9882;51.166;6.992;2023-01-05T11:50:19;10.90;99.90
19483;DHT22;9882;51.166;6.992;2023-01-05T11:52:52;10.90;99.90
19483;DHT22;9882;51.166;6.992;2023-01-05T11:55:27;10.90;99.90
19483;DHT22;9882;51.166;6.992;2023-01-05T11:58:22;10.90;99.90
19483;DHT22;9882;51.166;6.992;2023-01-05T12:04:10;11.00;99.90
19483;DHT22;9882;51.166;6.992;2023-01-05T12:07:02;11.10;99.90
19483;DHT22;9882;51.166;6.992;2023-01-05T12:09:35;11.10;99.90
19483;DHT22;9882;51.166;6.992;2023-01-05T12:12:18;11.10;99.90
19483;DHT22;9882;51.166;6.992;2023-01-05T12:15:03;11.10;99.90
19483;DHT22;9882;51.166;6.992;2023-01-05T12:17:43;11.20;99.90
19483;DHT22;9882;51.166;6.992;2023-01-05T12:20:30;11.30;99.90
19483;DHT22;9882;51.166;6.992;2023-01-05T12:23:26;11.30;99.90
19483;DHT22;9882;51.166;6.992;2023-01-05T12:26:03;11.40;99.90
19483;DHT22;9882;51.166;6.992;2023-01-05T12:32:03;11.20;99.90
19483;DHT22;9882;51.166;6.992;2023-01-05T12:35:27;11.20;99.90
19483;DHT22;9882;51.166;6.992;2023-01-05T12:38:21;11.10;99.90
19483;DHT22;9882;51.166;6.992;2023-01-05T12:41:13;11.10;99.90
19483;DHT22;9882;51.166;6.992;2023-01-05T12:43:58;11.10;99.90
19483;DHT22;9882;51.166;6.992;2023-01-05T12:46:38;11.10;99.90
19483;DHT22;9882;51.166;6.992;2023-01-05T12:49:18;11.10;99.90
19483;DHT22;9882;51.166;6.992;2023-01-05T12:51:51;11.30;99.90
19483;DHT22;9882;51.166;6.992;2023-01-05T12:54:30;11.30;99.90
19483;DHT22;9882;51.166;6.992;2023-01-05T12:57:02;11.40;99.90
19483;DHT22;9882;51.166;6.992;2023-01-05T12:59:38;11.30;99.90
19483;DHT22;9882;51.166;6.992;2023-01-05T13:02:25;11.20;99.90
19483;DHT22;9882;51.166;6.992;2023-01-05T13:05:02;11.20;99.90
19483;DHT22;9882;51.166;6.992;2023-01-05T13:07:33;11.20;99.90
19483;DHT22;9882;51.166;6.992;2023-01-05T13:10:11;11.20;99.90
19483;DHT22;9882;51.166;6.992;2023-01-05T13:12:43;11.20;99.90
19483;DHT22;9882;51.166;6.992;2023-01-05T13:15:15;11.20;99.90
19483;DHT22;9882;51.166;6.992;2023-01-05T13:17:48;11.20;99.90
19483;DHT22;9882;51.166;6.992;2023-01-05T13:20:27;11.20;99.90
19483;DHT22;9882;51.166;6.992;2023-01-05T13:23:03;11.10;99.90
19483;DHT22;9882;51.166;6.992;2023-01-05T13:25:48;11.10;99.90
19483;DHT22;9882;51.166;6.992;2023-01-05T13:28:20;11.10;99.90
19483;DHT22;9882;51.166;6.992;2023-01-05T13:31:02;11.10;99.90
19483;DHT22;9882;51.166;6.992;2023-01-05T13:33:50;11.10;99.90
19483;DHT22;9882;51.166;6.992;2023-01-05T13:36:33;11.10;99.90
19483;DHT22;9882;51.166;6.992;2023-01-05T13:42:39;11.20;99.90
19483;DHT22;9882;51.166;6.992;2023-01-05T13:45:27;11.30;99.90
19483;DHT22;9882;51.166;6.992;2023-01-05T13:48:26;11.20;99.90
19483;DHT22;9882;51.166;6.992;2023-01-05T13:51:15;11.20;99.90
19483;DHT22;9882;51.166;6.992;2023-01-05T13:53:51;11.20;99.90
19483;DHT22;9882;51.166;6.992;2023-01-05T13:56:23;11.30;99.90
19483;DHT22;9882;51.166;6.992;2023-01-05T13:58:58;11.30;99.90
19483;DHT22;9882;51.166;6.992;2023-01-05T14:01:36;11.20;99.90
19483;DHT22;9882;51.166;6.992;2023-01-05T14:04:16;11.20;99.90
19483;DHT22;9882;51.166;6.992;2023-01-05T14:06:50;11.10;99.90
19483;DHT22;9882;51.166;6.992;2023-01-05T14:09:27;11.10;99.90
19483;DHT22;9882;51.166;6.992;2023-01-05T14:18:09;11.10;99.90
19483;DHT22;9882;51.166;6.992;2023-01-05T14:20:41;11.10;99.90
19483;DHT22;9882;51.166;6.992;2023-01-05T14:26:58;11.10;99.90
19483;DHT22;9882;51.166;6.992;2023-01-05T14:29:58;11.00;99.90
19483;DHT22;9882;51.166;6.992;2023-01-05T14:32:29;11.10;99.90
19483;DHT22;9882;51.166;6.992;2023-01-05T14:35:04;11.10;99.90
19483;DHT22;9882;51.166;6.992;2023-01-05T14:37:38;11.00;99.90
19483;DHT22;9882;51.166;6.992;2023-01-05T14:40:23;11.00;99.90
19483;DHT22;9882;51.166;6.992;2023-01-05T14:43:00;11.00;99.90
19483;DHT22;9882;51.166;6.992;2023-01-05T14:45:31;11.00;99.90
19483;DHT22;9882;51.166;6.992;2023-01-05T14:48:04;11.00;99.90
19483;DHT22;9882;51.166;6.992;2023-01-05T14:50:37;11.00;99.90
19483;DHT22;9882;51.166;6.992;2023-01-05T14:53:12;11.00;99.90
19483;DHT22;9882;51.166;6.992;2023-01-05T14:56:15;11.00;99.90
19483;DHT22;9882;51.166;6.992;2023-01-05T14:59:15;10.90;99.90
19483;DHT22;9882;51.166;6.992;2023-01-05T15:01:49;11.00;99.90
19483;DHT22;9882;51.166;6.992;2023-01-05T15:04:24;11.00;99.90
19483;DHT22;9882;51.166;6.992;2023-01-05T15:07:10;11.00;99.90
19483;DHT22;9882;51.166;6.992;2023-01-05T15:09:55;10.90;99.90
19483;DHT22;9882;51.166;6.992;2023-01-05T15:12:49;11.00;99.90
19483;DHT22;9882;51.166;6.992;2023-01-05T15:15:34;10.90;99.90
19483;DHT22;9882;51.166;6.992;2023-01-05T15:24:49;10.90;99.90
19483;DHT22;9882;51.166;6.992;2023-01-05T15:27:34;10.90;99.90
19483;DHT22;9882;51.166;6.992;2023-01-05T15:33:23;10.80;99.90
19483;DHT22;9882;51.166;6.992;2023-01-05T15:35:56;10.90;99.90
19483;DHT22;9882;51.166;6.992;2023-01-05T15:38:29;10.90;99.90
19483;DHT22;9882;51.166;6.992;2023-01-05T15:41:03;10.90;99.90
19483;DHT22;9882;51.166;6.992;2023-01-05T15:43:33;10.80;99.90
19483;DHT22;9882;51.166;6.992;2023-01-05T15:46:05;10.80;99.90
19483;DHT22;9882;51.166;6.992;2023-01-05T15:48:39;10.80;99.90
19483;DHT22;9882;51.166;6.992;2023-01-05T15:51:09;10.80;99.90
19483;DHT22;9882;51.166;6.992;2023-01-05T15:53:39;10.80;99.90
19483;DHT22;9882;51.166;6.992;2023-01-05T15:56:24;10.80;99.90
19483;DHT22;9882;51.166;6.992;2023-01-05T15:58:55;10.80;99.90
19483;DHT22;9882;51.166;6.992;2023-01-05T16:01:24;10.80;99.90
19483;DHT22;9882;51.166;6.992;2023-01-05T16:04:06;10.80;99.90
19483;DHT22;9882;51.166;6.992;2023-01-05T16:06:36;10.70;99.90
19483;DHT22;9882;51.166;6.992;2023-01-05T16:09:09;10.70;99.90
19483;DHT22;9882;51.166;6.992;2023-01-05T16:11:40;10.70;99.90
19483;DHT22;9882;51.166;6.992;2023-01-05T16:14:14;10.80;99.90
19483;DHT22;9882;51.166;6.992;2023-01-05T16:16:49;10.80;99.90
19483;DHT22;9882;51.166;6.992;2023-01-05T16:19:32;10.80;99.90
19483;DHT22;9882;51.166;6.992;2023-01-05T16:22:07;10.70;99.90
19483;DHT22;9882;51.166;6.992;2023-01-05T16:24:42;10.70;99.90
19483;DHT22;9882;51.166;6.992;2023-01-05T16:27:12;10.70;99.90
19483;DHT22;9882;51.166;6.992;2023-01-05T16:29:43;10.70;99.90
19483;DHT22;9882;51.166;6.992;2023-01-05T16:32:27;10.70;99.90
19483;DHT22;9882;51.166;6.992;2023-01-05T16:35:21;10.80;99.90
19483;DHT22;9882;51.166;6.992;2023-01-05T16:38:24;10.80;99.90
19483;DHT22;9882;51.166;6.992;2023-01-05T16:41:12;10.80;99.90
19483;DHT22;9882;51.166;6.992;2023-01-05T16:43:50;10.70;99.90
19483;DHT22;9882;51.166;6.992;2023-01-05T16:46:34;10.70;99.90
19483;DHT22;9882;51.166;6.992;2023-01-05T16:49:39;10.70;99.90
19483;DHT22;9882;51.166;6.992;2023-01-05T16:52:25;10.60;99.90
19483;DHT22;9882;51.166;6.992;2023-01-05T16:55:20;10.60;99.90
19483;DHT22;9882;51.166;6.992;2023-01-05T16:58:32;10.50;99.90
19483;DHT22;9882;51.166;6.992;2023-01-05T17:01:15;10.50;99.90
19483;DHT22;9882;51.166;6.992;2023-01-05T17:03:51;10.50;99.90
19483;DHT22;9882;51.166;6.992;2023-01-05T17:06:26;10.40;99.90
19483;DHT22;9882;51.166;6.992;2023-01-05T17:09:00;10.30;99.90
19483;DHT22;9882;51.166;6.992;2023-01-05T17:11:34;10.40;99.90
19483;DHT22;9882;51.166;6.992;2023-01-05T17:14:05;10.40;99.90